Time;durP1;ratioP1;P1;durP2;ratioP2;P2;SDS_P1;SDS_P2;PMS_P1;PMS_P2;Temp;Humidity;BMP_temperature;BMP_pressure;BME280_temperature;BME280_humidity;BME280_pressure;Samples;Min_cycle;Max_cycle;Signal;HPM_P1;HPM_P2
2021/04/02 00:00:37;;;;;;;14.00;9.23;;;5.60;99.90;;;;;;5100701;28;19915;-56
2021/04/02 00:03:24;;;;;;;14.85;9.48;;;5.70;99.90;;;;;;5101107;28;20564;-59
2021/04/02 00:05:51;;;;;;;14.40;9.35;;;5.70;99.90;;;;;;5101674;28;20454;-50
2021/04/02 00:08:17;;;;;;;15.07;9.63;;;5.80;99.90;;;;;;5101281;28;20518;-56
2021/04/02 00:10:49;;;;;;;14.40;9.40;;;5.80;99.90;;;;;;5101592;28;20032;-57
2021/04/02 00:13:19;;;;;;;14.77;9.07;;;5.80;99.90;;;;;;5099144;28;20655;-51
2021/04/02 00:15:45;;;;;;;17.23;10.18;;;5.80;99.90;;;;;;5082219;28;20044;-55
2021/04/02 00:18:11;;;;;;;18.55;10.82;;;5.70;99.90;;;;;;5087975;28;20047;-55
2021/04/02 00:20:37;;;;;;;;;;;5.60;99.90;;;;;;5087722;28;20032;-55
2021/04/02 00:23:05;;;;;;;16.13;8.85;;;5.60;99.90;;;;;;5084747;28;19973;-54
2021/04/02 00:25:31;;;;;;;16.30;10.38;;;5.70;99.90;;;;;;5086904;28;20063;-54
2021/04/02 00:27:56;;;;;;;;;;;5.70;99.90;;;;;;5082459;28;20087;-56
2021/04/02 00:30:29;;;;;;;17.48;10.75;;;5.70;99.90;;;;;;5086578;28;19926;-58
2021/04/02 00:32:55;;;;;;;21.95;11.70;;;5.70;99.90;;;;;;5078936;28;20052;-55
2021/04/02 00:35:21;;;;;;;;;;;5.60;99.90;;;;;;5087958;28;20047;-59
2021/04/02 00:37:47;;;;;;;22.90;12.23;;;5.60;99.90;;;;;;5088059;28;19912;-58
2021/04/02 00:40:17;;;;;;;;;;;5.60;99.90;;;;;;5087874;28;20036;-55
2021/04/02 00:42:43;;;;;;;18.70;11.68;;;5.50;99.90;;;;;;5086196;28;19931;-54
2021/04/02 00:45:09;;;;;;;;;;;5.60;99.90;;;;;;5086335;28;20036;-52
2021/04/02 00:47:35;;;;;;;15.98;10.27;;;5.50;99.90;;;;;;5087500;28;19923;-52
2021/04/02 00:50:00;;;;;;;;;;;5.50;99.90;;;;;;5086827;28;20491;-53
2021/04/02 00:52:26;;;;;;;17.45;10.93;;;5.50;99.90;;;;;;5084627;28;20050;-55
2021/04/02 00:54:51;;;;;;;;;;;5.50;99.90;;;;;;5087211;28;20083;-54
2021/04/02 00:57:17;;;;;;;16.50;10.80;;;5.50;99.90;;;;;;5086504;28;20648;-57
2021/04/02 00:59:42;;;;;;;;;;;5.60;99.90;;;;;;5087330;28;20439;-55
2021/04/02 01:02:08;;;;;;;16.60;11.30;;;5.60;99.90;;;;;;5082272;28;19927;-56
2021/04/02 01:04:34;;;;;;;;;;;5.60;99.90;;;;;;5086559;28;20705;-57
2021/04/02 01:06:59;;;;;;;21.45;12.80;;;5.60;99.90;;;;;;5086499;28;20291;-58
2021/04/02 01:09:25;;;;;;;;;;;5.50;99.90;;;;;;5087570;28;20066;-57
2021/04/02 01:11:50;;;;;;;19.63;13.02;;;5.50;99.90;;;;;;5081583;28;19916;-57
2021/04/02 01:14:16;;;;;;;;;;;5.50;99.90;;;;;;5086868;28;20040;-57
2021/04/02 01:16:44;;;;;;;21.30;13.18;;;5.50;99.90;;;;;;5086429;28;19924;-55
2021/04/02 01:19:31;;;;;;;21.80;14.05;;;5.50;99.90;;;;;;5085859;28;20126;-56
2021/04/02 01:22:02;;;;;;;23.65;14.25;;;5.50;99.90;;;;;;5083603;28;20047;-55
2021/04/02 01:24:49;;;;;;;27.58;14.70;;;5.40;99.90;;;;;;5078294;28;20377;-58
2021/04/02 01:27:56;;;;;;;25.88;14.30;;;5.30;99.90;;;;;;5085401;28;20063;-54
2021/04/02 01:30:22;;;;;;;22.90;13.13;;;5.10;99.90;;;;;;5036099;28;20045;-56
2021/04/02 01:32:52;;;;;;;28.17;14.15;;;5.00;99.90;;;;;;5066317;28;20045;-55
2021/04/02 01:35:25;;;;;;;26.77;13.15;;;5.20;99.90;;;;;;5066099;28;20040;-57
2021/04/02 01:37:55;;;;;;;18.83;12.25;;;5.20;99.90;;;;;;5065921;28;20113;-55
2021/04/02 01:40:23;;;;;;;20.63;11.60;;;5.30;99.90;;;;;;5065895;28;20046;-52
2021/04/02 01:42:51;;;;;;;24.08;11.93;;;5.30;99.90;;;;;;5068601;28;20091;-55
2021/04/02 01:45:18;;;;;;;29.38;14.20;;;5.30;99.90;;;;;;5083477;28;20148;-58
2021/04/02 01:47:44;;;;;;;21.80;12.90;;;5.20;99.90;;;;;;5086356;28;20123;-57
2021/04/02 01:50:13;;;;;;;23.65;10.95;;;5.30;99.90;;;;;;5085895;28;20043;-58
2021/04/02 01:52:40;;;;;;;16.92;10.77;;;5.30;99.90;;;;;;5082546;28;20044;-58
2021/04/02 01:55:08;;;;;;;22.20;12.30;;;5.30;99.90;;;;;;5085934;28;20065;-59
2021/04/02 01:57:35;;;;;;;19.02;10.63;;;5.20;99.90;;;;;;5085253;28;20111;-54
2021/04/02 02:00:04;;;;;;;18.70;11.45;;;5.20;99.90;;;;;;5085584;28;20036;-58
2021/04/02 02:02:30;;;;;;;17.80;10.95;;;5.10;99.90;;;;;;5085028;28;20093;-53
2021/04/02 02:04:55;;;;;;;;;;;5.20;99.90;;;;;;5085941;28;20040;-54
2021/04/02 02:07:22;;;;;;;15.57;9.10;;;5.10;99.90;;;;;;5085458;28;20395;-54
2021/04/02 02:09:50;;;;;;;17.50;9.07;;;5.00;99.90;;;;;;5085765;28;20076;-57
2021/04/02 02:12:17;;;;;;;14.88;7.85;;;5.10;99.90;;;;;;5084797;28;20047;-57
2021/04/02 02:14:49;;;;;;;12.60;7.82;;;5.10;99.90;;;;;;5085347;28;20024;-54
2021/04/02 02:17:19;;;;;;;21.30;10.82;;;5.10;99.90;;;;;;5085420;28;20040;-48
2021/04/02 02:19:45;;;;;;;15.70;8.85;;;5.10;99.90;;;;;;5085341;28;20036;-54
2021/04/02 02:22:13;;;;;;;13.90;8.43;;;5.20;99.90;;;;;;5082996;28;20036;-55
2021/04/02 02:24:39;;;;;;;12.40;8.35;;;5.20;99.90;;;;;;5084738;28;20582;-57
2021/04/02 02:27:07;;;;;;;13.82;7.63;;;5.30;99.90;;;;;;5084963;28;20063;-58
2021/04/02 02:29:33;;;;;;;18.50;8.98;;;5.30;99.90;;;;;;5085395;28;20047;-52
2021/04/02 02:31:59;;;;;;;20.10;8.73;;;5.10;99.90;;;;;;5085107;28;20047;-58
2021/04/02 02:34:25;;;;;;;14.45;9.65;;;5.10;99.90;;;;;;5085609;28;20044;-58
2021/04/02 02:36:51;;;;;;;;;;;4.90;99.90;;;;;;5086276;28;20036;-59
2021/04/02 02:39:18;;;;;;;17.10;9.00;;;4.80;99.90;;;;;;5084675;28;20276;-57
2021/04/02 02:41:45;;;;;;;16.73;10.00;;;5.00;99.90;;;;;;5084807;28;20036;-56
2021/04/02 02:44:12;;;;;;;17.20;10.85;;;5.10;99.90;;;;;;5085999;28;20047;-59
2021/04/02 02:46:38;;;;;;;16.95;10.02;;;5.00;99.90;;;;;;5084733;28;20040;-56
2021/04/02 02:49:11;;;;;;;16.75;9.75;;;5.00;99.90;;;;;;5084973;28;20043;-58
2021/04/02 02:51:38;;;;;;;20.92;10.88;;;5.00;99.90;;;;;;5082206;28;20040;-58
2021/04/02 02:54:07;;;;;;;24.92;10.27;;;4.90;99.90;;;;;;5084927;28;20690;-53
2021/04/02 02:56:36;;;;;;;17.67;10.90;;;4.90;99.90;;;;;;5085392;28;21008;-59
2021/04/02 02:59:05;;;;;;;15.65;9.93;;;4.70;99.90;;;;;;5084791;28;20048;-54
2021/04/02 03:01:34;;;;;;;13.63;8.80;;;4.70;99.90;;;;;;5083886;28;20047;-57
2021/04/02 03:04:01;;;;;;;16.35;8.93;;;4.70;99.90;;;;;;5084809;28;20040;-57
2021/04/02 03:06:30;;;;;;;14.98;8.68;;;4.80;99.90;;;;;;5084426;28;20527;-56
2021/04/02 03:08:58;;;;;;;17.45;9.27;;;4.80;99.90;;;;;;5084558;28;20044;-52
2021/04/02 03:11:24;;;;;;;17.67;9.48;;;4.80;99.90;;;;;;5084653;28;20040;-57
2021/04/02 03:13:50;;;;;;;;;;;4.80;99.90;;;;;;5082224;28;20536;-55
2021/04/02 03:16:17;;;;;;;14.32;8.65;;;4.80;99.90;;;;;;5084054;28;20463;-52
2021/04/02 03:18:46;;;;;;;14.48;8.90;;;4.80;99.90;;;;;;5084460;28;20519;-57
2021/04/02 03:21:15;;;;;;;20.35;10.07;;;4.70;99.90;;;;;;5082286;28;20047;-57
2021/04/02 03:23:43;;;;;;;17.17;8.98;;;4.70;99.90;;;;;;5084411;28;20048;-55
2021/04/02 03:26:10;;;;;;;14.73;9.10;;;4.70;99.90;;;;;;5084502;28;20055;-56
2021/04/02 03:28:37;;;;;;;19.83;10.02;;;4.70;99.90;;;;;;5074160;28;20041;-51
2021/04/02 03:31:03;;;;;;;17.73;10.05;;;4.80;99.90;;;;;;5063802;28;20174;-57
2021/04/02 03:33:31;;;;;;;;;;;4.90;99.90;;;;;;5064971;28;20128;-53
2021/04/02 03:36:01;;;;;;;18.77;10.40;;;4.70;99.90;;;;;;5073072;28;19919;-51
2021/04/02 03:38:31;;;;;;;14.98;9.82;;;4.80;99.90;;;;;;5076092;28;20165;-57
2021/04/02 03:40:59;;;;;;;17.67;10.23;;;4.80;99.90;;;;;;5084886;28;20051;-54
2021/04/02 03:43:26;;;;;;;20.13;10.68;;;4.90;99.90;;;;;;5084508;28;20136;-57
2021/04/02 03:45:52;;;;;;;20.10;10.95;;;4.80;99.90;;;;;;5084394;28;20040;-57
2021/04/02 03:48:20;;;;;;;18.60;11.48;;;4.80;99.90;;;;;;5084575;28;20044;-54
2021/04/02 03:50:52;;;;;;;20.60;10.80;;;4.80;99.90;;;;;;5086105;28;20044;-57
2021/04/02 03:53:29;;;;;;;18.67;11.10;;;4.80;99.90;;;;;;5087711;28;20047;-59
2021/04/02 03:55:55;;;;;;;;;;;4.60;99.90;;;;;;5088733;28;20043;-56
2021/04/02 03:58:22;;;;;;;20.48;11.43;;;4.60;99.90;;;;;;5088260;28;19916;-59
2021/04/02 04:00:56;;;;;;;14.60;10.27;;;4.60;99.90;;;;;;5087736;28;20040;-59
2021/04/02 04:03:23;;;;;;;17.67;10.10;;;4.60;99.90;;;;;;5086664;28;20048;-58
2021/04/02 04:05:52;;;;;;;15.05;9.13;;;4.70;99.90;;;;;;5088230;28;20151;-59
2021/04/02 04:08:20;;;;;;;13.07;9.23;;;4.80;99.90;;;;;;5086394;28;20046;-56
2021/04/02 04:10:48;;;;;;;13.77;9.07;;;4.80;99.90;;;;;;5088287;28;20162;-57
2021/04/02 04:13:17;;;;;;;14.23;9.48;;;4.80;99.90;;;;;;5087491;28;20128;-58
2021/04/02 04:15:44;;;;;;;19.05;9.68;;;4.80;99.90;;;;;;5080712;28;20036;-55
2021/04/02 04:18:11;;;;;;;17.88;10.48;;;4.80;99.90;;;;;;5085966;28;20504;-58
2021/04/02 04:20:37;;;;;;;16.58;10.75;;;4.60;99.90;;;;;;5085941;28;20040;-56
2021/04/02 04:23:06;;;;;;;15.35;9.40;;;4.60;99.90;;;;;;5087463;28;20739;-57
2021/04/02 04:25:33;;;;;;;23.02;10.75;;;4.70;99.90;;;;;;5086941;28;20043;-54
2021/04/02 04:27:59;;;;;;;21.00;12.90;;;4.70;99.90;;;;;;5084900;28;20051;-56
2021/04/02 04:30:25;;;;;;;;;;;4.50;99.90;;;;;;5087872;28;20051;-52
2021/04/02 04:32:54;;;;;;;19.67;10.82;;;4.40;99.90;;;;;;5087364;28;19920;-57
2021/04/02 04:35:20;;;;;;;22.65;11.75;;;4.40;99.90;;;;;;5087745;28;20048;-56
2021/04/02 04:37:46;;;;;;;21.33;12.02;;;4.40;99.90;;;;;;5088436;28;20044;-58
2021/04/02 04:40:18;;;;;;;21.67;12.38;;;4.40;99.90;;;;;;5087520;28;20028;-51
2021/04/02 04:42:46;;;;;;;22.13;11.60;;;4.50;99.90;;;;;;5087197;28;20558;-55
2021/04/02 04:45:15;;;;;;;19.75;12.23;;;4.50;99.90;;;;;;5088719;28;20032;-59
2021/04/02 04:47:41;;;;;;;20.08;12.10;;;4.50;99.90;;;;;;5088146;28;20526;-54
2021/04/02 04:50:07;;;;;;;;;;;4.40;99.90;;;;;;5087578;28;20040;-56
2021/04/02 04:52:38;;;;;;;19.88;11.35;;;4.60;99.90;;;;;;5087521;28;20575;-57
2021/04/02 04:55:06;;;;;;;21.40;11.82;;;4.50;99.90;;;;;;5089069;28;20041;-55
2021/04/02 04:57:36;;;;;;;21.45;12.07;;;4.50;99.90;;;;;;5026466;28;20053;-57
2021/04/02 05:00:04;;;;;;;16.60;10.18;;;4.50;99.90;;;;;;5028033;28;20096;-54
2021/04/02 05:02:31;;;;;;;18.80;10.20;;;4.50;99.90;;;;;;5029201;28;20041;-55
2021/04/02 05:04:58;;;;;;;27.02;11.60;;;4.60;99.90;;;;;;5027161;28;20050;-58
2021/04/02 05:07:25;;;;;;;19.90;10.00;;;4.40;99.90;;;;;;5018426;28;20525;-57
2021/04/02 05:09:53;;;;;;;19.65;10.75;;;4.40;99.90;;;;;;5026262;28;20053;-57
2021/04/02 05:12:20;;;;;;;15.27;8.98;;;4.40;99.90;;;;;;5019047;28;20132;-52
2021/04/02 05:14:48;;;;;;;14.13;9.00;;;4.30;99.90;;;;;;5019919;28;20521;-54
2021/04/02 05:17:15;;;;;;;18.05;8.77;;;4.40;99.90;;;;;;5026555;28;20061;-56
2021/04/02 05:19:42;;;;;;;14.82;9.18;;;4.40;99.90;;;;;;5008053;28;20073;-56
2021/04/02 05:22:09;;;;;;;18.83;10.25;;;4.50;99.90;;;;;;5030070;23;20048;-53
2021/04/02 05:24:36;;;;;;;16.73;8.85;;;4.30;99.90;;;;;;5062912;28;20080;-57
2021/04/02 05:27:03;;;;;;;14.65;9.50;;;4.30;99.90;;;;;;5053621;28;20045;-51
2021/04/02 05:29:29;;;;;;;18.20;9.98;;;4.30;99.90;;;;;;5055052;28;20052;-58
2021/04/02 05:31:54;;;;;;;15.70;8.60;;;4.20;99.90;;;;;;5019698;28;20582;-59
2021/04/02 05:34:20;;;;;;;;;;;4.20;99.90;;;;;;5026413;28;20045;-54
2021/04/02 05:36:45;;;;;;;16.67;9.93;;;4.20;99.90;;;;;;5026342;23;19921;-52
2021/04/02 05:39:11;;;;;;;;;;;4.10;99.90;;;;;;5008364;28;20406;-51
2021/04/02 05:42:12;;;;;;;13.20;7.97;;;4.00;99.90;;;;;;5009586;23;19921;-70
2021/04/02 05:44:38;;;;;;;12.93;7.93;;;4.10;99.90;;;;;;5029629;28;20094;-69
2021/04/02 05:47:06;;;;;;;13.02;8.30;;;4.10;99.90;;;;;;5046326;28;20123;-72
2021/04/02 05:49:33;;;;;;;16.02;7.85;;;4.20;99.90;;;;;;5029587;28;20734;-71
2021/04/02 05:52:00;;;;;;;17.83;9.52;;;4.30;99.90;;;;;;5025506;28;20120;-70
2021/04/02 05:54:37;;;;;;;14.27;8.00;;;4.30;99.90;;;;;;5009076;28;20056;-70
2021/04/02 05:57:04;;;;;;;12.68;7.80;;;4.40;99.90;;;;;;5015110;28;20060;-70
2021/04/02 05:59:31;;;;;;;14.90;7.63;;;4.40;99.90;;;;;;5024870;28;20042;-70
2021/04/02 06:01:57;;;;;;;15.18;7.60;;;4.50;99.90;;;;;;5032258;28;20037;-70
2021/04/02 06:04:23;;;;;;;11.90;6.68;;;4.40;99.90;;;;;;5045664;28;20477;-69
2021/04/02 06:06:48;;;;;;;;;;;4.60;99.90;;;;;;5046296;28;20079;-69
2021/04/02 06:09:15;;;;;;;15.95;7.90;;;4.50;99.90;;;;;;5061858;28;19920;-69
2021/04/02 06:11:42;;;;;;;12.95;7.20;;;4.50;99.90;;;;;;5044488;28;20052;-68
2021/04/02 06:14:08;;;;;;;15.48;8.02;;;4.40;99.90;;;;;;5044550;28;20123;-70
2021/04/02 06:16:34;;;;;;;12.27;8.13;;;4.30;99.90;;;;;;5024537;28;20103;-69
2021/04/02 06:19:09;;;;;;;11.57;7.30;;;4.30;99.90;;;;;;5025570;28;20045;-69
2021/04/02 06:21:44;;;;;;;14.82;8.55;;;4.10;99.90;;;;;;5024784;28;20029;-71
2021/04/02 06:24:12;;;;;;;17.15;8.40;;;4.30;99.90;;;;;;5025585;28;20041;-71
2021/04/02 06:26:37;;;;;;;13.43;7.28;;;4.30;99.90;;;;;;5057063;28;20053;-69
2021/04/02 06:29:03;;;;;;;;;;;4.30;99.90;;;;;;5046051;28;20110;-70
2021/04/02 06:31:32;;;;;;;12.30;8.07;;;4.40;99.90;;;;;;5055797;28;20007;-69
2021/04/02 06:34:06;;;;;;;12.48;7.80;;;4.30;99.90;;;;;;5046799;28;20044;-70
2021/04/02 06:36:32;;;;;;;12.15;7.63;;;4.30;99.90;;;;;;5046526;28;20051;-71
2021/04/02 06:38:58;;;;;;;12.45;7.25;;;4.20;99.90;;;;;;5046996;28;20037;-72
2021/04/02 06:41:26;;;;;;;12.88;7.72;;;4.20;99.90;;;;;;5044944;28;20028;-71
2021/04/02 06:43:57;;;;;;;13.98;7.50;;;4.30;99.90;;;;;;5045148;28;20047;-72
2021/04/02 06:46:29;;;;;;;9.88;6.35;;;4.30;99.90;;;;;;5044400;28;20136;-70
2021/04/02 06:48:56;;;;;;;10.38;7.10;;;4.30;99.90;;;;;;5045647;28;20037;-68
2021/04/02 06:51:24;;;;;;;11.98;7.82;;;4.20;99.90;;;;;;5044708;28;20036;-69
2021/04/02 06:53:53;;;;;;;15.32;8.55;;;4.10;99.90;;;;;;5045988;28;20040;-69
2021/04/02 06:56:20;;;;;;;16.48;8.48;;;4.10;99.90;;;;;;5045926;28;20049;-67
2021/04/02 06:58:49;;;;;;;11.98;7.30;;;4.10;99.90;;;;;;5056858;28;20048;-71
2021/04/02 07:01:16;;;;;;;13.40;7.65;;;4.20;99.90;;;;;;5060054;28;20045;-72
2021/04/02 07:03:44;;;;;;;11.68;7.53;;;4.20;99.90;;;;;;5061604;28;20045;-68
2021/04/02 07:06:13;;;;;;;14.05;8.65;;;4.10;99.90;;;;;;5061322;28;20037;-68
2021/04/02 07:08:40;;;;;;;13.45;8.52;;;4.10;99.90;;;;;;5061855;28;20087;-69
2021/04/02 07:11:07;;;;;;;16.88;8.60;;;4.00;99.90;;;;;;5045295;28;20044;-69
2021/04/02 07:13:36;;;;;;;15.18;8.63;;;4.10;99.90;;;;;;5043850;28;20048;-68
2021/04/02 07:16:03;;;;;;;19.90;9.57;;;4.10;99.90;;;;;;5045330;28;20045;-69
2021/04/02 07:18:29;;;;;;;19.80;11.00;;;4.10;99.90;;;;;;5044764;28;20052;-68
2021/04/02 07:20:55;;;;;;;19.05;10.00;;;4.10;99.90;;;;;;5045490;28;20045;-68
2021/04/02 07:23:21;;;;;;;20.90;11.75;;;4.10;99.90;;;;;;5044674;28;20054;-68
2021/04/02 07:25:48;;;;;;;19.92;12.07;;;4.10;99.90;;;;;;5048054;28;20045;-69
2021/04/02 07:28:16;;;;;;;19.08;11.57;;;4.10;99.90;;;;;;5064448;28;20041;-71
2021/04/02 07:30:44;;;;;;;32.42;13.90;;;4.10;99.90;;;;;;5048671;28;20486;-67
2021/04/02 07:33:11;;;;;;;25.40;13.43;;;3.90;99.90;;;;;;5064818;28;20051;-67
2021/04/02 07:35:38;;;;;;;22.83;11.73;;;4.00;99.90;;;;;;5048137;28;20132;-67
2021/04/02 07:38:10;;;;;;;21.48;12.13;;;3.80;99.90;;;;;;5056790;28;20036;-68
2021/04/02 07:40:36;;;;;;;19.40;11.68;;;4.00;99.90;;;;;;5049183;28;20072;-66
2021/04/02 07:43:08;;;;;;;23.25;12.30;;;4.10;99.90;;;;;;5048093;28;20159;-67
2021/04/02 07:45:35;;;;;;;19.00;11.98;;;3.90;99.90;;;;;;5050178;28;20037;-67
2021/04/02 07:48:27;;;;;;;20.98;10.02;;;4.20;99.90;;;;;;5050602;28;20444;-73
2021/04/02 07:51:02;;;;;;;17.58;10.68;;;4.30;99.90;;;;;;5048054;28;20041;-66
2021/04/02 07:53:32;;;;;;;19.67;12.10;;;4.20;99.90;;;;;;5050760;28;20115;-66
2021/04/02 07:56:19;;;;;;;18.13;10.73;;;4.10;99.90;;;;;;5049232;28;20037;-66
2021/04/02 07:58:52;;;;;;;19.42;11.95;;;4.10;99.90;;;;;;5048698;28;20120;-66
2021/04/02 08:01:23;;;;;;;19.85;10.48;;;4.00;99.90;;;;;;5049128;28;20040;-66
2021/04/02 08:03:52;;;;;;;15.07;9.27;;;4.20;99.90;;;;;;5048793;28;20078;-68
2021/04/02 08:06:28;;;;;;;16.73;10.82;;;4.30;99.90;;;;;;5048953;28;20520;-66
2021/04/02 08:08:54;;;;;;;17.75;11.20;;;4.40;99.90;;;;;;5048954;28;20095;-68
2021/04/02 08:11:25;;;;;;;;;;;4.40;99.90;;;;;;5048950;28;20045;-66
2021/04/02 08:13:59;;;;;;;21.60;12.20;;;4.30;99.90;;;;;;5048702;28;19920;-69
2021/04/02 08:16:46;;;;;;;19.17;10.82;;;4.10;99.90;;;;;;5047919;28;20045;-69
2021/04/02 08:19:11;;;;;;;19.70;11.38;;;4.20;99.90;;;;;;5065531;28;20044;-70
2021/04/02 08:21:38;;;;;;;;;;;4.20;99.90;;;;;;5051128;28;20041;-69
2021/04/02 08:24:07;;;;;;;14.93;9.80;;;4.10;99.90;;;;;;5036453;28;19921;-68
2021/04/02 08:26:35;;;;;;;17.90;9.52;;;4.20;99.90;;;;;;5056951;28;20039;-68
2021/04/02 08:29:03;;;;;;;19.50;10.40;;;4.40;99.90;;;;;;5055784;28;20045;-68
2021/04/02 08:31:29;;;;;;;17.08;10.10;;;4.40;99.90;;;;;;5043554;28;20172;-70
2021/04/02 08:33:55;;;;;;;;;;;4.30;99.90;;;;;;5045874;28;20483;-71
2021/04/02 08:36:29;;;;;;;18.08;9.80;;;4.30;99.90;;;;;;5045172;28;19931;-69
2021/04/02 08:38:55;;;;;;;15.60;8.70;;;4.20;99.90;;;;;;5044915;28;20044;-71
2021/04/02 08:41:32;;;;;;;18.50;9.07;;;4.40;99.90;;;;;;5029341;28;20099;-68
2021/04/02 08:43:59;;;;;;;16.05;8.55;;;4.40;99.90;;;;;;5044454;28;20049;-69
2021/04/02 08:46:39;;;;;;;16.05;8.50;;;4.60;99.90;;;;;;5044194;28;20508;-70
2021/04/02 08:49:07;;;;;;;13.45;8.18;;;4.70;99.90;;;;;;5030079;28;20034;-69
2021/04/02 08:51:34;;;;;;;16.05;8.98;;;4.90;99.90;;;;;;5044852;28;20132;-68
2021/04/02 08:54:00;;;;;;;12.60;8.32;;;4.80;99.90;;;;;;5030202;28;20052;-69
2021/04/02 08:56:32;;;;;;;14.07;9.23;;;4.70;99.90;;;;;;5052172;28;20040;-68
2021/04/02 08:59:01;;;;;;;14.07;8.32;;;4.70;99.90;;;;;;5065399;28;20052;-69
2021/04/02 09:01:27;;;;;;;15.43;9.90;;;4.60;99.90;;;;;;5047770;28;20088;-68
2021/04/02 09:03:54;;;;;;;;;;;4.70;99.90;;;;;;5048837;28;20041;-70
2021/04/02 09:06:23;;;;;;;18.92;10.07;;;4.50;99.90;;;;;;5060351;28;19927;-70
2021/04/02 09:08:49;;;;;;;15.75;9.15;;;4.60;99.90;;;;;;5044685;28;20042;-69
2021/04/02 09:11:15;;;;;;;18.27;9.07;;;4.70;99.90;;;;;;5031036;28;20032;-69
2021/04/02 09:13:43;;;;;;;;;;;4.70;99.90;;;;;;5055719;28;20547;-69
2021/04/02 09:16:13;;;;;;;16.73;9.10;;;4.90;99.90;;;;;;5048604;28;20168;-67
2021/04/02 09:18:56;;;;;;;17.60;10.43;;;4.90;99.90;;;;;;5047726;28;20041;-67
2021/04/02 09:21:24;;;;;;;18.95;9.02;;;5.00;99.90;;;;;;5063994;28;20087;-68
2021/04/02 09:23:51;;;;;;;18.70;9.48;;;5.00;99.90;;;;;;5064535;28;20037;-70
2021/04/02 09:26:17;;;;;;;17.42;10.10;;;5.00;99.90;;;;;;5049774;28;20040;-70
2021/04/02 09:28:43;;;;;;;19.90;10.48;;;5.00;99.90;;;;;;5046749;28;20041;-68
2021/04/02 09:31:31;;;;;;;;;;;4.90;99.90;;;;;;5056008;28;20065;-70
2021/04/02 09:34:02;;;;;;;18.50;9.23;;;4.80;99.90;;;;;;5034487;28;20408;-70
2021/04/02 09:36:34;;;;;;;20.23;9.07;;;4.60;99.90;;;;;;5044218;28;20479;-69
2021/04/02 09:39:10;;;;;;;12.77;8.30;;;4.70;99.90;;;;;;5029124;28;20045;-68
2021/04/02 09:41:39;;;;;;;17.45;9.25;;;4.60;99.90;;;;;;5028010;28;20129;-68
2021/04/02 09:44:16;;;;;;;17.38;9.25;;;4.60;99.90;;;;;;5044105;28;20134;-70
2021/04/02 09:46:44;;;;;;;17.45;9.73;;;4.50;99.90;;;;;;5030266;28;20072;-69
2021/04/02 09:49:18;;;;;;;17.67;9.68;;;4.40;99.90;;;;;;5007585;28;20145;-70
2021/04/02 09:51:52;;;;;;;15.98;9.38;;;4.40;99.90;;;;;;5023901;28;20038;-70
2021/04/02 09:54:19;;;;;;;13.63;7.90;;;4.50;99.90;;;;;;5023434;28;20041;-70
2021/04/02 09:56:46;;;;;;;13.77;8.65;;;4.60;99.90;;;;;;5009461;28;20034;-68
2021/04/02 09:59:14;;;;;;;13.98;8.55;;;4.80;99.90;;;;;;5016778;28;20049;-67
2021/04/02 10:01:42;;;;;;;15.07;9.07;;;4.90;99.90;;;;;;5023034;28;20052;-67
2021/04/02 10:04:09;;;;;;;16.48;8.15;;;5.00;99.90;;;;;;5023672;28;20042;-70
2021/04/02 10:06:35;;;;;;;11.63;7.30;;;5.10;99.90;;;;;;5027501;28;20076;-66
2021/04/02 10:09:04;;;;;;;17.38;8.32;;;5.00;99.90;;;;;;5027288;28;20045;-70
2021/04/02 10:11:31;;;;;;;13.18;8.02;;;5.20;99.90;;;;;;5022756;28;20072;-70
2021/04/02 10:13:57;;;;;;;11.75;7.07;;;5.20;99.90;;;;;;5025582;28;20037;-70
2021/04/02 10:16:24;;;;;;;15.43;8.05;;;5.20;99.90;;;;;;5044740;28;20041;-68
2021/04/02 10:18:50;;;;;;;12.50;7.93;;;5.40;99.90;;;;;;5048796;28;20518;-69
2021/04/02 10:21:24;;;;;;;14.50;7.65;;;5.40;99.90;;;;;;5047317;28;20132;-67
2021/04/02 10:23:52;;;;;;;13.27;7.22;;;5.50;99.90;;;;;;5048298;28;20064;-69
2021/04/02 10:26:18;;;;;;;16.75;10.23;;;5.50;99.90;;;;;;5046527;28;20041;-68
2021/04/02 10:28:45;;;;;;;13.70;7.40;;;5.70;99.90;;;;;;5051776;28;20041;-69
2021/04/02 10:31:11;;;;;;;11.88;7.72;;;5.70;99.90;;;;;;5046205;28;20551;-70
2021/04/02 10:33:37;;;;;;;14.32;8.98;;;5.70;99.80;;;;;;5046574;28;20056;-68
2021/04/02 10:36:03;;;;;;;;;;;5.60;99.70;;;;;;5047562;28;20041;-69
2021/04/02 10:38:29;;;;;;;15.23;8.27;;;5.60;99.90;;;;;;5062875;28;19924;-68
2021/04/02 10:40:55;;;;;;;;;;;5.70;99.90;;;;;;5046686;28;20033;-68
2021/04/02 10:43:21;;;;;;;15.95;8.15;;;5.80;99.80;;;;;;5047291;28;20677;-71
2021/04/02 10:45:48;;;;;;;14.60;8.02;;;6.00;99.40;;;;;;5045888;28;20037;-69
2021/04/02 10:48:15;;;;;;;13.18;7.93;;;6.20;99.10;;;;;;5046813;28;20386;-70
2021/04/02 10:50:45;;;;;;;13.98;8.57;;;6.20;98.40;;;;;;5048115;28;20045;-71
2021/04/02 10:53:12;;;;;;;18.98;11.43;;;6.20;97.50;;;;;;5046070;28;20194;-69
2021/04/02 10:55:38;;;;;;;16.40;8.57;;;6.40;97.60;;;;;;5045883;28;20045;-67
2021/04/02 10:58:05;;;;;;;;;;;6.40;97.70;;;;;;5046026;28;20040;-67
2021/04/02 11:00:32;;;;;;;15.73;9.18;;;6.10;97.80;;;;;;5062791;28;19999;-67
2021/04/02 11:02:57;;;;;;;15.68;8.60;;;6.10;97.90;;;;;;5046005;28;20505;-67
2021/04/02 11:05:23;;;;;;;;;;;6.10;97.70;;;;;;5046439;28;20037;-67
2021/04/02 11:07:49;;;;;;;20.83;8.48;;;6.10;97.70;;;;;;5047405;28;19995;-68
2021/04/02 11:10:16;;;;;;;;;;;6.40;98.10;;;;;;5046646;28;20037;-69
2021/04/02 11:12:42;;;;;;;14.70;9.13;;;6.20;97.10;;;;;;5045650;28;19921;-70
2021/04/02 11:15:12;;;;;;;;;;;6.20;97.40;;;;;;5045799;28;20044;-70
2021/04/02 11:17:39;;;;;;;17.48;10.52;;;6.30;96.50;;;;;;5025445;28;19963;-70
2021/04/02 11:20:06;;;;;;;16.98;9.63;;;6.50;96.20;;;;;;5043004;28;20068;-68
2021/04/02 11:22:33;;;;;;;22.92;11.13;;;6.70;97.40;;;;;;5054377;28;20049;-68
2021/04/02 11:25:00;;;;;;;16.88;9.88;;;6.80;96.50;;;;;;5053172;28;20091;-70
2021/04/02 11:27:25;;;;;;;;;;;6.80;96.10;;;;;;5066631;28;20045;-70
2021/04/02 11:29:55;;;;;;;19.75;11.43;;;6.60;97.00;;;;;;5060189;28;19921;-71
2021/04/02 11:32:23;;;;;;;22.60;11.90;;;6.80;95.90;;;;;;5042261;28;20041;-71
2021/04/02 11:34:52;;;;;;;17.05;10.70;;;6.60;95.60;;;;;;5026359;28;20037;-69
2021/04/02 11:37:18;;;;;;;20.98;11.15;;;6.70;96.00;;;;;;5026904;28;20041;-70
2021/04/02 11:39:47;;;;;;;20.88;10.80;;;7.00;95.80;;;;;;5032750;28;20041;-68
2021/04/02 11:42:13;;;;;;;22.38;11.60;;;7.10;95.80;;;;;;5034643;28;20224;-70
2021/04/02 11:44:39;;;;;;;;;;;7.10;96.20;;;;;;5026327;28;20574;-73
2021/04/02 11:47:06;;;;;;;22.37;12.53;;;7.30;95.70;;;;;;5042117;28;19955;-73
2021/04/02 11:49:32;;;;;;;21.50;12.05;;;7.40;97.90;;;;;;5025768;28;20045;-72
2021/04/02 11:51:57;;;;;;;;;;;7.50;95.10;;;;;;5026442;28;20040;-73
2021/04/02 11:54:24;;;;;;;21.52;11.38;;;7.20;94.90;;;;;;5042095;28;19921;-72
2021/04/02 11:56:51;;;;;;;17.05;9.30;;;7.30;95.00;;;;;;5037121;28;20041;-74
2021/04/02 11:59:17;;;;;;;18.33;9.52;;;7.20;94.30;;;;;;5062212;28;20033;-75
2021/04/02 12:01:43;;;;;;;17.45;10.20;;;7.30;94.90;;;;;;5044523;28;20093;-75
2021/04/02 12:04:10;;;;;;;25.38;10.63;;;7.40;93.90;;;;;;5055675;28;20045;-74
2021/04/02 12:06:37;;;;;;;20.48;9.95;;;7.30;93.40;;;;;;5058974;28;20048;-73
2021/04/02 12:09:04;;;;;;;26.42;9.77;;;7.50;95.80;;;;;;5040394;28;20041;-70
2021/04/02 12:11:30;;;;;;;20.92;8.93;;;7.70;94.30;;;;;;5041006;28;20072;-71
2021/04/02 12:13:56;;;;;;;13.95;8.77;;;7.70;93.30;;;;;;5049971;28;20056;-71
2021/04/02 12:16:22;;;;;;;;;;;7.60;93.20;;;;;;5048737;28;20041;-68
2021/04/02 12:18:48;;;;;;;16.88;8.23;;;7.60;93.30;;;;;;5048831;28;19927;-69
2021/04/02 12:21:14;;;;;;;;;;;7.60;93.70;;;;;;5049332;28;20098;-72
2021/04/02 12:23:39;;;;;;;15.88;7.75;;;7.80;92.40;;;;;;5049030;28;19928;-68
2021/04/02 12:26:05;;;;;;;;;;;8.00;93.60;;;;;;5049697;28;20041;-72
2021/04/02 12:28:32;;;;;;;11.25;7.25;;;8.10;91.10;;;;;;5041750;28;20571;-69
2021/04/02 12:31:01;;;;;;;13.38;6.70;;;8.20;92.20;;;;;;5049363;28;20131;-72
2021/04/02 12:33:31;;;;;;;15.23;7.28;;;8.10;91.50;;;;;;5048934;28;20051;-72
2021/04/02 12:35:57;;;;;;;13.77;6.93;;;8.20;92.70;;;;;;5044361;28;20256;-72
2021/04/02 12:38:24;;;;;;;17.25;8.02;;;8.20;92.50;;;;;;5066588;28;20036;-68
2021/04/02 12:40:51;;;;;;;21.67;10.18;;;8.40;91.10;;;;;;5047791;28;20033;-70
2021/04/02 12:43:17;;;;;;;18.00;7.30;;;8.60;91.50;;;;;;5061535;28;20041;-71
2021/04/02 12:45:43;;;;;;;;;;;8.70;90.10;;;;;;5029249;28;20083;-70
2021/04/02 12:48:09;;;;;;;12.93;6.20;;;8.60;85.80;;;;;;5039898;28;19916;-68
2021/04/02 12:50:35;;;;;;;;;;;8.20;89.40;;;;;;5048814;28;20056;-70
2021/04/02 12:53:01;;;;;;;16.27;5.97;;;8.20;90.50;;;;;;5048363;28;20016;-71
2021/04/02 12:55:29;;;;;;;14.73;6.85;;;8.20;90.40;;;;;;5065270;28;20045;-68
2021/04/02 12:57:56;;;;;;;13.60;6.53;;;8.10;90.30;;;;;;5060428;28;20048;-71
2021/04/02 13:00:26;;;;;;;12.07;5.72;;;8.20;91.30;;;;;;5063597;28;20045;-69